Time;durP1;ratioP1;P1;durP2;ratioP2;P2;SDS_P1;SDS_P2;PMS_P1;PMS_P2;Temp;Humidity;BMP_temperature;BMP_pressure;BME280_temperature;BME280_humidity;BME280_pressure;Samples;Min_cycle;Max_cycle;Signal;HPM_P1;HPM_P2
2023/01/25 00:00:13;;;;;;;95.13;40.13;;;;;;;0.39;72.08;101441.22;4997369;28;20042;-72
2023/01/25 00:02:39;;;;;;;85.53;37.65;;;;;;;0.39;72.30;101438.63;4997114;28;20051;-72
2023/01/25 00:05:04;;;;;;;92.07;39.63;;;;;;;0.41;72.53;101443.06;4997131;28;20547;-72
2023/01/25 00:07:30;;;;;;;88.63;38.87;;;;;;;0.44;72.64;101437.19;4996816;28;20040;-72
2023/01/25 00:09:55;;;;;;;89.97;38.70;;;;;;;0.47;72.83;101444.22;4997356;28;20022;-72
2023/01/25 00:12:21;;;;;;;95.20;39.47;;;;;;;0.49;72.62;101438.34;4996858;28;20029;-72
2023/01/25 00:14:46;;;;;;;100.77;40.60;;;;;;;0.52;72.50;101437.63;4997263;28;20018;-72
2023/01/25 00:17:12;;;;;;;92.60;39.50;;;;;;;0.54;72.52;101442.06;4996766;28;20033;-72
2023/01/25 00:19:37;;;;;;;89.87;39.30;;;;;;;0.56;72.95;101439.56;4998485;28;20085;-72
2023/01/25 00:22:02;;;;;;;90.78;38.25;;;;;;;0.60;72.93;101444.13;5000818;28;20561;-72
2023/01/25 00:24:28;;;;;;;97.07;40.97;;;;;;;0.61;72.86;101445.91;5000632;28;20026;-72
2023/01/25 00:26:53;;;;;;;101.10;42.27;;;;;;;0.64;72.77;101453.84;5000871;28;20022;-72
2023/01/25 00:29:19;;;;;;;108.70;44.73;;;;;;;0.67;72.91;101453.13;5000690;28;20026;-72
2023/01/25 00:32:00;;;;;;;101.40;44.55;;;;;;;0.66;72.49;101453.94;5000174;28;20053;-72
2023/01/25 00:34:25;;;;;;;102.67;44.93;;;;;;;0.69;72.41;101447.22;4995532;28;20030;-72
2023/01/25 00:36:55;;;;;;;102.50;43.27;;;;;;;0.70;73.10;101448.13;5000850;28;20150;-72
2023/01/25 00:39:22;;;;;;;104.90;43.13;;;;;;;0.72;72.66;101449.09;5032221;28;20360;-72
2023/01/25 00:41:47;;;;;;;109.65;44.38;;;;;;;0.73;73.24;101448.28;5004128;28;20025;-73
2023/01/25 00:44:13;;;;;;;112.93;46.07;;;;;;;0.71;73.14;101434.34;5004907;28;20101;-72
2023/01/25 00:46:38;;;;;;;110.13;44.42;;;;;;;0.71;72.98;101435.22;5000340;28;20026;-72
2023/01/25 00:49:04;;;;;;;110.67;44.47;;;;;;;0.70;72.96;101440.34;4999102;28;20125;-73
2023/01/25 00:51:29;;;;;;;101.73;43.23;;;;;;;0.67;72.51;101430.69;5000263;28;20459;-73
2023/01/25 00:53:55;;;;;;;105.80;42.78;;;;;;;0.65;72.91;101428.81;5000391;28;20395;-73
2023/01/25 00:56:20;;;;;;;105.80;46.97;;;;;;;0.62;72.85;101431.25;5015409;28;20029;-72
2023/01/25 00:58:46;;;;;;;106.47;44.47;;;;;;;0.57;72.79;101431.88;4999685;28;20026;-73
2023/01/25 01:01:12;;;;;;;104.17;42.50;;;;;;;0.52;72.64;101438.50;5000207;28;20029;-72
2023/01/25 01:03:38;;;;;;;106.03;44.22;;;;;;;0.47;72.32;101439.94;4997232;28;20108;-73
2023/01/25 01:06:07;;;;;;;104.45;44.75;;;;;;;0.42;72.82;101437.09;5000129;28;20515;-72
2023/01/25 01:08:35;;;;;;;111.53;45.70;;;;;;;0.39;72.39;101438.63;4999846;28;20045;-72
2023/01/25 01:11:03;;;;;;;110.15;46.40;;;;;;;0.35;72.70;101445.34;4998836;28;20117;-72
2023/01/25 01:13:29;;;;;;;106.70;45.80;;;;;;;0.33;72.34;101446.03;4998672;28;20062;-72
2023/01/25 01:15:55;;;;;;;100.72;42.78;;;;;;;0.27;72.24;101447.47;5014772;28;20022;-72
2023/01/25 01:18:21;;;;;;;109.53;43.78;;;;;;;0.23;72.15;101440.34;4999674;28;20391;-73
2023/01/25 01:20:51;;;;;;;103.72;44.33;;;;;;;0.18;72.49;101435.69;5031384;28;20014;-73
2023/01/25 01:23:17;;;;;;;107.23;45.97;;;;;;;0.16;72.50;101445.09;4999760;28;20128;-72
2023/01/25 01:25:42;;;;;;;102.82;44.42;;;;;;;0.12;72.55;101444.00;4999671;28;20026;-72
2023/01/25 01:28:08;;;;;;;96.90;41.00;;;;;;;0.09;72.27;101451.59;4999676;28;20026;-72
2023/01/25 01:30:33;;;;;;;98.35;42.55;;;;;;;0.06;72.17;101448.84;4998019;28;20559;-73
2023/01/25 01:32:59;;;;;;;102.80;44.27;;;;;;;0.03;72.11;101446.06;4998115;28;20022;-73
2023/01/25 01:35:24;;;;;;;99.57;43.70;;;;;;;0.01;72.15;101442.50;4999465;28;20109;-72
2023/01/25 01:37:49;;;;;;;107.73;44.73;;;;;;;-0.04;72.40;101450.91;5014403;28;20034;-72
2023/01/25 01:40:16;;;;;;;106.60;44.00;;;;;;;-0.07;72.41;101448.13;4998279;28;20780;-73
2023/01/25 01:43:02;;;;;;;107.33;44.83;;;;;;;-0.11;72.00;101453.94;5003795;28;20784;-73
2023/01/25 01:46:04;;;;;;;98.00;41.58;;;;;;;-0.14;71.92;101456.31;4999340;28;20026;-73
2023/01/25 01:48:51;;;;;;;98.15;41.08;;;;;;;-0.16;72.27;101456.25;5018641;28;20089;-72
2023/01/25 01:51:23;;;;;;;99.13;42.10;;;;;;;-0.20;72.13;101458.56;4999184;28;20030;-73
2023/01/25 01:53:54;;;;;;;104.40;44.63;;;;;;;-0.24;71.91;101465.28;4999242;28;20031;-73
2023/01/25 01:56:28;;;;;;;102.83;44.57;;;;;;;-0.27;72.12;101467.66;4999349;28;20022;-73
2023/01/25 01:58:56;;;;;;;99.93;43.80;;;;;;;-0.27;72.38;101465.06;4998461;28;20530;-73
2023/01/25 02:01:21;;;;;;;97.85;43.17;;;;;;;-0.30;72.25;101452.84;4999264;28;20034;-73
2023/01/25 02:03:48;;;;;;;103.63;42.50;;;;;;;-0.32;72.00;101444.09;4998972;28;20117;-72
2023/01/25 02:06:46;;;;;;;94.25;40.28;;;;;;;-0.35;71.84;101456.88;4998877;28;20030;-73
2023/01/25 02:09:14;;;;;;;91.63;37.60;;;;;;;-0.35;72.10;101468.91;5013394;28;20128;-72
2023/01/25 02:11:41;;;;;;;96.15;41.45;;;;;;;-0.38;72.03;101468.72;4998943;28;20037;-73
2023/01/25 02:14:07;;;;;;;92.57;39.90;;;;;;;-0.40;72.02;101470.31;5030271;28;20034;-73
2023/01/25 02:16:33;;;;;;;100.43;40.90;;;;;;;-0.40;72.27;101473.78;4998558;28;20029;-73
2023/01/25 02:19:01;;;;;;;98.20;40.47;;;;;;;-0.44;72.06;101469.25;4997323;28;20034;-73
2023/01/25 02:21:32;;;;;;;97.33;38.30;;;;;;;-0.47;72.07;101475.16;4998690;28;20030;-73
2023/01/25 02:24:11;;;;;;;93.72;38.67;;;;;;;-0.48;71.99;101478.53;4997418;28;20494;-73
2023/01/25 02:26:37;;;;;;;82.82;36.72;;;;;;;-0.50;72.04;101471.47;4998560;28;20101;-73
2023/01/25 02:29:05;;;;;;;87.60;37.33;;;;;;;-0.51;72.01;101473.16;4998089;28;20072;-73
2023/01/25 02:31:31;;;;;;;82.23;34.07;;;;;;;-0.53;71.80;101479.03;4998281;28;20079;-73
2023/01/25 02:33:56;;;;;;;91.03;38.03;;;;;;;-0.56;71.91;101486.63;4996939;28;20112;-73
2023/01/25 02:36:40;;;;;;;85.50;37.90;;;;;;;-0.61;72.05;101487.22;4998313;28;20026;-73
2023/01/25 02:39:08;;;;;;;82.68;36.35;;;;;;;-0.61;72.10;101481.16;4994364;28;20562;-73
2023/01/25 02:41:39;;;;;;;83.45;34.90;;;;;;;-0.65;72.13;101469.72;4998534;28;20037;-73
2023/01/25 02:44:11;;;;;;;77.93;35.70;;;;;;;-0.68;71.90;101469.53;4997891;28;20407;-73
2023/01/25 02:46:39;;;;;;;91.10;37.90;;;;;;;-0.68;71.85;101463.50;4998183;28;20049;-73
2023/01/25 02:49:06;;;;;;;82.25;37.08;;;;;;;-0.71;72.08;101453.84;4998253;28;20086;-73
2023/01/25 02:51:35;;;;;;;83.35;37.17;;;;;;;-0.72;71.85;101446.88;4997687;28;20407;-73
2023/01/25 02:54:02;;;;;;;84.90;36.05;;;;;;;-0.72;72.21;101444.28;4998067;28;20032;-73
2023/01/25 02:56:28;;;;;;;85.13;35.03;;;;;;;-0.73;72.10;101443.38;4997876;28;20037;-73
2023/01/25 02:58:54;;;;;;;82.18;35.95;;;;;;;-0.73;72.13;101439.91;4997763;28;20426;-73
2023/01/25 03:01:19;;;;;;;80.90;33.67;;;;;;;-0.73;71.89;101451.13;4997991;28;20033;-73
2023/01/25 03:03:45;;;;;;;82.75;33.95;;;;;;;-0.74;72.28;101438.13;4997847;28;20026;-72
2023/01/25 03:06:10;;;;;;;80.43;33.87;;;;;;;-0.76;72.15;101440.59;4998093;28;20034;-73
2023/01/25 03:08:36;;;;;;;83.97;34.37;;;;;;;-0.76;72.09;101432.84;4996324;28;20562;-72
2023/01/25 03:11:03;;;;;;;81.90;32.85;;;;;;;-0.76;72.23;101429.38;4996697;28;20129;-72
2023/01/25 03:13:29;;;;;;;80.57;31.63;;;;;;;-0.76;72.45;101434.56;4997566;28;20034;-72
2023/01/25 03:16:02;;;;;;;74.95;30.23;;;;;;;-0.77;72.28;101430.19;4997848;28;20029;-73
2023/01/25 03:18:28;;;;;;;68.97;29.88;;;;;;;-0.76;72.42;101431.97;4997116;28;20030;-72
2023/01/25 03:20:53;;;;;;;85.57;32.03;;;;;;;-0.76;72.33;101435.44;4997763;28;20104;-72
2023/01/25 03:23:19;;;;;;;89.32;32.20;;;;;;;-0.74;72.60;101438.13;4997482;28;20022;-72
2023/01/25 03:25:44;;;;;;;93.10;31.83;;;;;;;-0.72;72.61;101441.69;4997344;28;20033;-72
2023/01/25 03:28:10;;;;;;;79.77;28.33;;;;;;;-0.72;72.52;101433.94;4997141;28;20018;-73
2023/01/25 03:30:35;;;;;;;80.80;29.40;;;;;;;-0.71;72.56;101427.97;4997283;28;20014;-73
2023/01/25 03:33:00;;;;;;;84.72;29.05;;;;;;;-0.69;72.44;101441.88;4997290;28;20026;-72
2023/01/25 03:35:26;;;;;;;75.27;27.00;;;;;;;-0.69;72.44;101428.94;4996962;28;20035;-72
2023/01/25 03:37:51;;;;;;;68.63;25.50;;;;;;;-0.69;72.45;101433.25;4997247;28;20030;-72
2023/01/25 03:40:17;;;;;;;64.03;24.60;;;;;;;-0.70;72.37;101432.34;4997608;28;20048;-73
2023/01/25 03:42:42;;;;;;;69.93;25.00;;;;;;;-0.69;72.48;101436.72;5006765;28;20022;-72
2023/01/25 03:45:08;;;;;;;58.20;22.35;;;;;;;-0.69;72.34;101436.72;4997249;28;20026;-73
2023/01/25 03:47:33;;;;;;;59.13;21.63;;;;;;;-0.68;72.49;101438.50;5028677;28;20467;-72
2023/01/25 03:49:59;;;;;;;56.00;21.63;;;;;;;-0.68;72.32;101440.22;4997356;28;20486;-72
2023/01/25 03:52:26;;;;;;;55.97;21.55;;;;;;;-0.67;72.47;101439.41;5015693;28;20080;-72
2023/01/25 03:54:51;;;;;;;64.80;23.07;;;;;;;-0.67;72.51;101437.69;4996526;28;20088;-72
2023/01/25 03:57:17;;;;;;;72.60;25.95;;;;;;;-0.67;72.75;101440.28;4997019;28;20030;-72
2023/01/25 03:59:42;;;;;;;61.23;22.70;;;;;;;-0.67;72.44;101442.00;4997271;28;20035;-72
2023/01/25 04:02:07;;;;;;;73.03;24.50;;;;;;;-0.68;72.63;101435.03;4996966;28;20503;-72
2023/01/25 04:04:33;;;;;;;66.43;21.87;;;;;;;-0.69;72.57;101431.53;4997490;28;20398;-72
2023/01/25 04:06:58;;;;;;;55.50;20.03;;;;;;;-0.69;72.72;101431.53;4997189;28;20434;-72
2023/01/25 04:09:23;;;;;;;55.37;19.10;;;;;;;-0.67;72.54;101444.56;4996988;28;20281;-72
2023/01/25 04:11:50;;;;;;;55.53;18.47;;;;;;;-0.66;72.86;101439.47;4996910;28;20022;-72
2023/01/25 04:14:15;;;;;;;49.22;17.73;;;;;;;-0.63;72.66;101437.06;4993130;28;20061;-72
2023/01/25 04:16:41;;;;;;;53.20;18.23;;;;;;;-0.61;72.99;101434.59;4994244;28;20035;-72
2023/01/25 04:19:07;;;;;;;50.50;18.08;;;;;;;-0.61;72.94;101435.47;4996935;28;20452;-72
2023/01/25 04:21:32;;;;;;;51.20;17.60;;;;;;;-0.61;72.94;101432.88;4997071;28;20098;-72
2023/01/25 04:23:57;;;;;;;47.37;17.13;;;;;;;-0.60;72.37;101432.13;4997100;28;20041;-72
2023/01/25 04:26:23;;;;;;;54.05;18.30;;;;;;;-0.59;72.91;101423.56;4996909;28;20495;-72
2023/01/25 04:28:49;;;;;;;49.53;16.67;;;;;;;-0.57;72.81;101414.97;4996863;28;20022;-72
2023/01/25 04:31:14;;;;;;;50.67;16.63;;;;;;;-0.57;73.11;101421.03;4996565;28;20037;-72
2023/01/25 04:33:39;;;;;;;46.90;16.95;;;;;;;-0.57;72.92;101418.44;4996953;28;20019;-72
2023/01/25 04:36:05;;;;;;;47.93;17.53;;;;;;;-0.56;72.96;101432.28;5028241;28;20030;-72
2023/01/25 04:38:31;;;;;;;45.70;16.27;;;;;;;-0.56;72.93;101427.13;5028346;28;20030;-72
2023/01/25 04:40:56;;;;;;;48.17;17.00;;;;;;;-0.55;72.74;101423.72;4997016;28;20098;-72
2023/01/25 04:43:22;;;;;;;53.77;18.10;;;;;;;-0.55;72.70;101418.56;5023012;28;20266;-72
2023/01/25 04:45:47;;;;;;;44.67;16.07;;;;;;;-0.56;72.84;101419.34;4994443;28;20092;-72
2023/01/25 04:48:13;;;;;;;48.30;17.33;;;;;;;-0.57;72.89;101420.16;5028716;28;20045;-72
2023/01/25 04:50:40;;;;;;;45.03;17.53;;;;;;;-0.59;72.75;101422.63;4997165;28;20365;-72
2023/01/25 04:53:07;;;;;;;44.80;17.05;;;;;;;-0.60;72.56;101428.63;4996661;28;20034;-72
2023/01/25 04:55:33;;;;;;;43.95;17.42;;;;;;;-0.60;72.93;101423.44;4996722;28;20061;-72
2023/01/25 04:57:59;;;;;;;47.37;18.07;;;;;;;-0.63;72.45;101431.91;4996421;28;20446;-72
2023/01/25 05:00:25;;;;;;;45.00;17.73;;;;;;;-0.65;72.61;101424.88;4996788;28;20109;-72
2023/01/25 05:02:50;;;;;;;46.50;16.33;;;;;;;-0.66;72.44;101425.66;4996514;28;20124;-72
2023/01/25 05:05:16;;;;;;;47.47;17.97;;;;;;;-0.67;72.80;101426.47;4997691;28;20068;-72
2023/01/25 05:07:42;;;;;;;54.20;20.40;;;;;;;-0.69;72.76;101428.94;5000234;28;20021;-72
2023/01/25 05:10:08;;;;;;;55.63;20.38;;;;;;;-0.70;72.87;101422.00;5000239;28;20026;-72
2023/01/25 05:12:34;;;;;;;52.53;19.40;;;;;;;-0.70;73.11;101418.53;4998733;28;20502;-72
2023/01/25 05:14:59;;;;;;;49.30;18.00;;;;;;;-0.71;72.70;101411.56;5000446;28;20026;-72
2023/01/25 05:17:25;;;;;;;55.70;18.53;;;;;;;-0.71;72.71;101417.63;4999892;28;20117;-72
2023/01/25 05:19:50;;;;;;;48.43;17.93;;;;;;;-0.73;72.73;101408.88;5000337;28;20048;-72
2023/01/25 05:22:19;;;;;;;50.35;16.88;;;;;;;-0.71;72.95;101403.81;5000095;28;20030;-72
2023/01/25 05:24:46;;;;;;;51.83;18.20;;;;;;;-0.72;72.52;101402.91;5000217;28;20034;-72
2023/01/25 05:27:14;;;;;;;53.55;18.65;;;;;;;-0.70;73.07;101398.72;4999535;28;20061;-72
2023/01/25 05:29:42;;;;;;;59.45;19.10;;;;;;;-0.68;72.84;101404.00;4999881;28;20042;-72
2023/01/25 05:32:20;;;;;;;59.03;20.75;;;;;;;-0.67;73.10;101409.25;4999813;28;20057;-72
2023/01/25 05:34:46;;;;;;;49.55;18.17;;;;;;;-0.63;73.04;101405.16;4988516;28;20426;-72
2023/01/25 05:37:14;;;;;;;62.23;19.87;;;;;;;-0.62;73.37;101407.81;4999752;28;20109;-72
2023/01/25 05:39:40;;;;;;;64.18;23.77;;;;;;;-0.58;72.91;101414.06;4999920;28;20101;-72
2023/01/25 05:42:13;;;;;;;62.55;22.88;;;;;;;-0.56;73.24;101411.59;5000477;28;20031;-72
2023/01/25 05:44:39;;;;;;;64.25;22.33;;;;;;;-0.53;73.51;101411.78;4999780;28;20034;-72
2023/01/25 05:47:05;;;;;;;62.03;22.50;;;;;;;-0.49;73.48;101413.72;4999731;28;20033;-72
2023/01/25 05:49:30;;;;;;;63.45;23.48;;;;;;;-0.42;73.62;101415.88;4999578;28;20081;-72
2023/01/25 05:51:56;;;;;;;57.23;20.30;;;;;;;-0.35;73.69;101412.88;4998352;28;20041;-72
2023/01/25 05:54:21;;;;;;;52.30;19.57;;;;;;;-0.30;73.39;101405.34;4999462;28;20105;-72
2023/01/25 05:56:48;;;;;;;53.00;19.30;;;;;;;-0.25;74.05;101411.69;4999207;28;20030;-72
2023/01/25 05:59:14;;;;;;;49.22;18.20;;;;;;;-0.19;73.84;101408.56;4998311;28;20034;-72
2023/01/25 06:01:39;;;;;;;48.77;18.27;;;;;;;-0.14;73.90;101414.91;4999299;28;20033;-72
2023/01/25 06:04:05;;;;;;;55.57;18.57;;;;;;;-0.09;73.74;101416.09;4999559;28;20038;-72
2023/01/25 06:06:31;;;;;;;47.05;17.83;;;;;;;-0.05;73.72;101415.44;4999425;28;20030;-72
2023/01/25 06:08:56;;;;;;;53.10;19.25;;;;;;;-0.01;73.81;101421.69;4999516;28;20050;-72
2023/01/25 06:11:23;;;;;;;50.07;17.80;;;;;;;0.04;73.69;101422.88;4998931;28;20065;-72
2023/01/25 06:13:50;;;;;;;47.53;18.40;;;;;;;0.12;74.10;101426.78;4997693;28;20030;-72
2023/01/25 06:16:17;;;;;;;52.60;18.35;;;;;;;0.20;74.33;101424.63;4998862;28;20101;-72
2023/01/25 06:18:43;;;;;;;49.97;18.70;;;;;;;0.28;74.61;101428.53;4997077;28;20033;-72
2023/01/25 06:21:08;;;;;;;51.65;19.98;;;;;;;0.38;74.39;101427.38;4998701;28;20108;-72
2023/01/25 06:23:34;;;;;;;47.27;19.13;;;;;;;0.46;74.36;101422.63;4998791;28;20042;-72
2023/01/25 06:26:02;;;;;;;48.70;17.83;;;;;;;0.53;74.18;101424.72;5000264;28;20600;-72
2023/01/25 06:28:36;;;;;;;43.42;18.75;;;;;;;0.61;74.26;101432.06;4998644;28;20053;-72
2023/01/25 06:31:12;;;;;;;53.63;19.40;;;;;;;0.68;74.14;101423.81;4998817;28;20496;-72
2023/01/25 06:33:40;;;;;;;49.22;19.02;;;;;;;0.76;74.71;101426.81;4998787;28;20030;-72
2023/01/25 06:36:09;;;;;;;46.35;19.33;;;;;;;0.81;74.64;101415.88;4998866;28;20062;-72
2023/01/25 06:38:35;;;;;;;50.70;19.05;;;;;;;0.85;74.25;101412.66;4998061;28;20499;-72
2023/01/25 06:41:03;;;;;;;42.17;17.37;;;;;;;0.91;74.42;101416.38;4998821;28;20499;-72
2023/01/25 06:43:29;;;;;;;42.63;17.13;;;;;;;0.96;74.37;101413.22;5002816;28;20085;-72
2023/01/25 06:46:03;;;;;;;43.83;17.70;;;;;;;0.99;74.59;101420.28;4998743;28;20081;-72
2023/01/25 06:48:30;;;;;;;45.58;17.92;;;;;;;1.02;74.82;101420.44;4998333;28;20127;-72
2023/01/25 06:51:07;;;;;;;44.00;16.10;;;;;;;1.05;74.11;101430.09;4998524;28;20068;-74
2023/01/25 06:53:35;;;;;;;36.13;15.17;;;;;;;1.09;74.89;101427.75;4998370;28;20026;-74
2023/01/25 06:56:09;;;;;;;42.70;15.70;;;;;;;1.15;75.11;101432.34;4997286;28;20026;-73
2023/01/25 06:58:35;;;;;;;40.55;15.98;;;;;;;1.19;74.80;101429.13;4998104;28;20088;-74
2023/01/25 07:01:11;;;;;;;40.33;15.30;;;;;;;1.25;74.38;101439.84;4998422;28;20454;-73
2023/01/25 07:03:37;;;;;;;42.47;16.52;;;;;;;1.29;74.91;101430.50;4996568;28;20127;-73
2023/01/25 07:06:05;;;;;;;44.20;17.30;;;;;;;1.33;74.40;101437.66;4998341;28;20023;-73
2023/01/25 07:08:32;;;;;;;41.05;17.60;;;;;;;1.38;75.44;101441.38;4998320;28;20388;-73
2023/01/25 07:11:00;;;;;;;40.00;16.40;;;;;;;1.41;75.09;101430.25;4996742;28;20040;-73
2023/01/25 07:13:27;;;;;;;36.83;16.25;;;;;;;1.46;74.68;101427.91;4997624;28;20028;-73
2023/01/25 07:15:58;;;;;;;44.17;17.35;;;;;;;1.50;75.20;101435.03;4997132;28;20022;-72
2023/01/25 07:18:25;;;;;;;43.20;17.50;;;;;;;1.54;74.98;101432.69;4995927;28;20022;-73
2023/01/25 07:20:51;;;;;;;39.33;16.13;;;;;;;1.58;75.25;101433.75;4997087;28;20052;-72
2023/01/25 07:23:17;;;;;;;42.60;15.53;;;;;;;1.61;75.12;101439.09;4993037;28;20121;-72
2023/01/25 07:25:49;;;;;;;38.33;16.52;;;;;;;1.64;74.76;101439.25;4992880;28;20050;-73
2023/01/25 07:28:16;;;;;;;41.95;16.38;;;;;;;1.69;75.26;101436.88;4997169;28;20042;-73
2023/01/25 07:30:42;;;;;;;38.97;16.73;;;;;;;1.74;74.56;101439.69;4995605;28;20037;-73
2023/01/25 07:33:08;;;;;;;42.17;17.02;;;;;;;1.76;74.61;101433.78;4996820;28;20022;-73
2023/01/25 07:35:34;;;;;;;43.25;18.42;;;;;;;1.80;75.14;101442.59;4995997;28;20022;-72
2023/01/25 07:37:59;;;;;;;41.93;17.07;;;;;;;1.82;74.92;101433.22;4996950;28;20022;-77
2023/01/25 07:40:25;;;;;;;39.03;16.50;;;;;;;1.85;75.49;101435.97;5012161;28;20027;-76
2023/01/25 07:42:51;;;;;;;41.90;16.30;;;;;;;1.89;74.75;101442.19;4997652;28;20029;-74
2023/01/25 07:45:17;;;;;;;40.92;16.77;;;;;;;1.90;75.49;101437.06;4997026;28;20060;-74
2023/01/25 07:47:42;;;;;;;38.20;15.33;;;;;;;1.94;75.13;101443.31;4994664;28;20103;-76
2023/01/25 07:50:09;;;;;;;37.00;15.63;;;;;;;1.97;75.30;101449.53;4995926;28;20520;-76
2023/01/25 07:52:35;;;;;;;38.00;15.47;;;;;;;1.99;75.07;101447.91;5011350;28;20392;-76
2023/01/25 07:55:00;;;;;;;36.80;15.40;;;;;;;2.03;74.79;101453.25;5011479;28;20084;-76
2023/01/25 07:57:27;;;;;;;38.37;15.90;;;;;;;2.06;74.76;101450.84;4996697;28;20125;-75
2023/01/25 07:59:53;;;;;;;38.65;16.13;;;;;;;2.08;75.33;101460.47;4996805;28;20026;-76
2023/01/25 08:02:18;;;;;;;38.20;15.80;;;;;;;2.11;75.10;101452.81;4996877;28;20444;-78
2023/01/25 08:04:44;;;;;;;38.92;16.33;;;;;;;2.14;75.14;101459.91;4995994;28;20030;-76
2023/01/25 08:07:10;;;;;;;41.03;16.27;;;;;;;2.19;74.84;101465.34;4992726;28;20031;-76
2023/01/25 08:09:36;;;;;;;34.53;16.58;;;;;;;2.24;74.88;101466.44;4991343;28;20042;-77
2023/01/25 08:12:02;;;;;;;39.33;15.90;;;;;;;2.32;74.83;101461.63;4995487;28;20041;-80
2023/01/25 08:14:27;;;;;;;41.67;17.98;;;;;;;2.39;74.64;101474.09;4996081;28;20112;-78
2023/01/25 08:16:53;;;;;;;48.50;16.70;;;;;;;2.45;75.10;101477.00;4996200;28;20041;-79
2023/01/25 08:19:19;;;;;;;41.37;16.90;;;;;;;2.54;75.32;101473.94;4997071;28;20036;-79
2023/01/25 08:21:44;;;;;;;35.05;15.40;;;;;;;2.60;74.73;101470.75;4994853;28;20034;-81
2023/01/25 08:24:10;;;;;;;38.38;15.70;;;;;;;2.64;75.27;101473.56;4995985;28;20038;-83
2023/01/25 08:26:36;;;;;;;38.20;16.20;;;;;;;2.70;74.88;101465.16;4996155;28;20038;-79
2023/01/25 08:29:02;;;;;;;34.08;14.20;;;;;;;2.73;74.53;101470.50;4996996;28;20037;-80
2023/01/25 08:31:31;;;;;;;37.67;15.60;;;;;;;2.77;75.06;101474.16;4996492;28;20026;-84
2023/01/25 08:33:57;;;;;;;40.77;15.97;;;;;;;2.82;74.76;101470.06;4997059;28;20191;-84
2023/01/25 08:36:26;;;;;;;37.42;16.63;;;;;;;2.86;74.94;101471.97;4995731;28;20026;-76
2023/01/25 08:38:57;;;;;;;38.63;16.33;;;;;;;2.92;74.97;101476.59;4996173;28;20403;-87
2023/01/25 08:41:24;;;;;;;38.08;16.38;;;;;;;2.98;75.20;101479.47;4996055;28;20085;-83
2023/01/25 08:43:52;;;;;;;36.10;15.25;;;;;;;3.03;75.08;101479.69;5002765;28;20034;-83
2023/01/25 08:46:19;;;;;;;33.33;14.87;;;;;;;3.08;74.83;101475.59;4997560;28;20080;-77
2023/01/25 08:48:44;;;;;;;36.10;15.32;;;;;;;3.12;74.84;101481.03;4998082;28;20030;-76
2023/01/25 08:51:15;;;;;;;34.95;14.98;;;;;;;3.15;75.07;101486.34;4999339;28;20034;-81
2023/01/25 08:53:40;;;;;;;39.17;17.00;;;;;;;3.22;74.69;101489.25;4998236;28;20022;-78
2023/01/25 08:56:08;;;;;;;38.95;16.38;;;;;;;3.29;74.82;101489.59;4999808;28;20069;-81
2023/01/25 08:58:36;;;;;;;33.92;14.95;;;;;;;3.38;74.82;101494.34;4996982;28;20030;-81
2023/01/25 09:01:06;;;;;;;36.57;15.73;;;;;;;3.42;74.25;101484.97;5000072;28;20026;-78
2023/01/25 09:03:37;;;;;;;34.58;15.13;;;;;;;3.48;74.46;101486.91;4999707;28;20486;-83
2023/01/25 09:06:03;;;;;;;41.17;16.05;;;;;;;3.51;74.79;101487.97;5000259;28;20033;-82
2023/01/25 09:08:28;;;;;;;36.42;15.32;;;;;;;3.57;75.22;101489.97;5014888;28;20415;-82
2023/01/25 09:10:53;;;;;;;39.60;15.70;;;;;;;3.65;74.91;101499.00;4998983;28;20030;-79
2023/01/25 09:13:19;;;;;;;39.30;14.87;;;;;;;3.71;75.16;101498.38;4996953;28;20577;-80
2023/01/25 09:15:44;;;;;;;36.70;16.23;;;;;;;3.78;74.89;101499.53;4998723;28;20022;-84
2023/01/25 09:18:10;;;;;;;35.93;15.70;;;;;;;3.85;74.64;101501.59;4999082;28;20022;-81
2023/01/25 09:20:39;;;;;;;41.57;15.93;;;;;;;3.92;74.57;101503.63;4998111;28;20346;-82
2023/01/25 09:23:04;;;;;;;35.03;15.43;;;;;;;3.98;74.91;101495.19;4995641;28;20459;-82
2023/01/25 09:25:30;;;;;;;35.13;15.23;;;;;;;4.00;74.49;101494.44;4996798;28;20066;-82
2023/01/25 09:27:55;;;;;;;37.28;15.93;;;;;;;4.02;74.46;101495.38;5002967;28;20493;-83
2023/01/25 09:30:21;;;;;;;33.80;14.97;;;;;;;4.01;74.45;101498.81;4995544;28;20044;-83
2023/01/25 09:32:49;;;;;;;34.93;14.70;;;;;;;4.00;74.58;101504.88;4994071;28;20037;-82
2023/01/25 09:35:15;;;;;;;31.63;13.50;;;;;;;3.99;74.32;101503.09;4994072;28;20031;-83
2023/01/25 09:37:40;;;;;;;34.30;14.23;;;;;;;3.96;74.22;101502.91;4994372;28;20030;-82
2023/01/25 09:40:18;;;;;;;34.33;14.87;;;;;;;3.90;73.65;101505.28;4997904;28;20030;-87
2023/01/25 09:42:57;;;;;;;32.92;14.15;;;;;;;3.83;74.20;101505.84;4996532;28;20033;-84
2023/01/25 09:45:35;;;;;;;33.53;14.87;;;;;;;3.82;74.59;101501.44;4989053;28;20041;-84
2023/01/25 09:48:27;;;;;;;33.33;14.40;;;;;;;3.81;74.17;101499.66;5009886;28;20513;-85
2023/01/25 09:50:58;;;;;;;30.08;13.38;;;;;;;3.86;74.79;101498.16;4994659;28;20038;-84
2023/01/25 09:53:34;;;;;;;36.05;14.75;;;;;;;3.85;73.82;101492.03;4994075;28;20022;-81
2023/01/25 09:56:07;;;;;;;33.65;14.30;;;;;;;3.86;73.73;101492.94;4994353;28;20029;-80
2023/01/25 09:58:38;;;;;;;32.53;13.87;;;;;;;3.92;74.75;101489.72;4993691;28;20062;-79
2023/01/25 10:01:14;;;;;;;34.72;14.05;;;;;;;3.96;74.51;101489.00;4993043;28;20029;-80
2023/01/25 10:04:05;;;;;;;31.65;13.55;;;;;;;3.99;73.33;101487.44;4995058;28;20032;-80
2023/01/25 10:06:37;;;;;;;32.92;14.07;;;;;;;4.07;74.44;101486.88;4994506;28;20506;-79
2023/01/25 10:09:32;;;;;;;30.23;13.43;;;;;;;4.12;73.54;101480.13;4994503;28;20050;-75
2023/01/25 10:12:10;;;;;;;31.37;13.70;;;;;;;4.16;74.01;101482.03;4994533;28;20058;-80
2023/01/25 10:14:36;;;;;;;32.05;14.32;;;;;;;4.20;74.66;101478.72;4993333;28;20072;-81
2023/01/25 10:17:10;;;;;;;34.27;14.73;;;;;;;4.25;74.17;101472.00;4994666;28;20062;-80
2023/01/25 10:19:54;;;;;;;30.60;13.82;;;;;;;4.25;73.13;101468.50;4995065;28;20030;-82
2023/01/25 10:22:23;;;;;;;31.35;13.02;;;;;;;4.31;74.04;101460.91;4995886;28;20038;-82
2023/01/25 10:25:23;;;;;;;31.10;12.98;;;;;;;4.31;72.94;101454.00;4996568;28;20037;-79
2023/01/25 10:28:12;;;;;;;33.55;13.60;;;;;;;4.37;73.22;101449.84;4997240;28;20023;-83
2023/01/25 10:31:01;;;;;;;28.67;12.70;;;;;;;4.38;73.06;101455.13;4992491;28;20030;-81
2023/01/25 10:33:28;;;;;;;29.73;12.23;;;;;;;4.45;74.41;101453.66;4990868;28;20034;-83
2023/01/25 10:35:54;;;;;;;27.77;12.85;;;;;;;4.49;74.13;101449.44;4993632;28;20041;-79
2023/01/25 10:38:38;;;;;;;31.23;13.48;;;;;;;4.47;73.23;101449.41;4993787;28;20031;-83
2023/01/25 10:41:09;;;;;;;29.95;12.27;;;;;;;4.48;74.13;101453.78;4991482;28;20038;-75
2023/01/25 10:43:34;;;;;;;32.03;13.87;;;;;;;4.45;74.05;101449.34;4992658;28;20509;-74
2023/01/25 10:46:01;;;;;;;32.97;14.07;;;;;;;4.41;73.92;101446.53;4992963;28;20026;-74
2023/01/25 10:48:31;;;;;;;31.20;12.90;;;;;;;4.31;73.85;101443.56;4993315;28;20415;-73
2023/01/25 10:50:57;;;;;;;31.20;13.90;;;;;;;4.30;74.00;101444.38;4993744;28;20030;-73
2023/01/25 10:53:34;;;;;;;29.80;13.75;;;;;;;4.28;73.53;101437.31;4992470;28;20536;-73
2023/01/25 10:56:09;;;;;;;28.27;12.95;;;;;;;4.30;73.74;101439.19;4995335;28;20028;-73
2023/01/25 10:58:40;;;;;;;28.60;12.93;;;;;;;4.31;74.03;101435.75;4992787;28;20038;-73
2023/01/25 11:01:30;;;;;;;29.80;12.98;;;;;;;4.25;72.57;101427.69;4992613;28;20375;-73
2023/01/25 11:03:56;;;;;;;31.50;13.35;;;;;;;4.25;73.92;101424.16;4991834;28;20034;-73
2023/01/25 11:06:45;;;;;;;28.00;12.23;;;;;;;4.20;72.35;101416.16;4993229;28;20080;-73
2023/01/25 11:09:19;;;;;;;28.40;12.50;;;;;;;4.21;73.58;101412.72;4993523;28;20046;-72
2023/01/25 11:11:56;;;;;;;30.13;12.97;;;;;;;4.22;73.36;101409.31;4995075;28;20033;-77
2023/01/25 11:14:27;;;;;;;32.67;13.20;;;;;;;4.28;74.28;101406.03;4995367;28;20022;-75
2023/01/25 11:16:54;;;;;;;28.33;12.57;;;;;;;4.35;74.31;101397.66;4994558;28;20077;-77